sensor_id;sensor_type;location;lat;lon;timestamp;temperature;humidity
2929;DHT22;1474;51.460;7.150;2022-10-16T00:01:58;14.60;99.90
2929;DHT22;1474;51.460;7.150;2022-10-16T00:04:24;14.60;99.90
2929;DHT22;1474;51.460;7.150;2022-10-16T00:06:49;14.60;99.90
2929;DHT22;1474;51.460;7.150;2022-10-16T00:09:16;14.60;99.90
2929;DHT22;1474;51.460;7.150;2022-10-16T00:11:41;14.60;99.90
2929;DHT22;1474;51.460;7.150;2022-10-16T00:14:10;14.60;99.90
2929;DHT22;1474;51.460;7.150;2022-10-16T00:16:36;14.60;99.90
2929;DHT22;1474;51.460;7.150;2022-10-16T00:19:02;14.60;99.90
2929;DHT22;1474;51.460;7.150;2022-10-16T00:21:29;14.60;99.90
2929;DHT22;1474;51.460;7.150;2022-10-16T00:24:02;14.50;99.90
2929;DHT22;1474;51.460;7.150;2022-10-16T00:26:30;14.60;99.90
2929;DHT22;1474;51.460;7.150;2022-10-16T00:28:56;14.60;99.90
2929;DHT22;1474;51.460;7.150;2022-10-16T00:31:22;14.60;99.90
2929;DHT22;1474;51.460;7.150;2022-10-16T00:33:49;14.60;99.90
2929;DHT22;1474;51.460;7.150;2022-10-16T00:36:17;14.50;99.90
2929;DHT22;1474;51.460;7.150;2022-10-16T00:38:43;14.50;99.90
2929;DHT22;1474;51.460;7.150;2022-10-16T00:41:16;14.40;99.90
2929;DHT22;1474;51.460;7.150;2022-10-16T00:43:46;14.40;99.90
2929;DHT22;1474;51.460;7.150;2022-10-16T00:48:59;14.40;99.90
2929;DHT22;1474;51.460;7.150;2022-10-16T00:51:32;14.40;99.90
2929;DHT22;1474;51.460;7.150;2022-10-16T00:53:59;14.40;99.90
2929;DHT22;1474;51.460;7.150;2022-10-16T00:56:25;14.40;99.90
2929;DHT22;1474;51.460;7.150;2022-10-16T00:58:50;14.40;99.90
2929;DHT22;1474;51.460;7.150;2022-10-16T01:01:16;14.40;99.90
2929;DHT22;1474;51.460;7.150;2022-10-16T01:03:42;14.40;99.90
2929;DHT22;1474;51.460;7.150;2022-10-16T01:06:24;14.40;99.90
2929;DHT22;1474;51.460;7.150;2022-10-16T01:14:09;14.40;99.90
2929;DHT22;1474;51.460;7.150;2022-10-16T01:17:08;14.30;99.90
2929;DHT22;1474;51.460;7.150;2022-10-16T01:22:17;14.30;99.90
2929;DHT22;1474;51.460;7.150;2022-10-16T01:24:49;14.40;99.90
2929;DHT22;1474;51.460;7.150;2022-10-16T01:27:22;14.30;99.90
2929;DHT22;1474;51.460;7.150;2022-10-16T01:30:02;14.30;99.90
2929;DHT22;1474;51.460;7.150;2022-10-16T01:32:36;14.40;99.90
2929;DHT22;1474;51.460;7.150;2022-10-16T01:35:08;14.40;99.90
2929;DHT22;1474;51.460;7.150;2022-10-16T01:37:51;14.40;99.90
2929;DHT22;1474;51.460;7.150;2022-10-16T01:40:19;14.30;99.90
2929;DHT22;1474;51.460;7.150;2022-10-16T01:42:49;14.30;99.90
2929;DHT22;1474;51.460;7.150;2022-10-16T01:45:18;14.30;99.90
2929;DHT22;1474;51.460;7.150;2022-10-16T01:47:45;14.30;99.90
2929;DHT22;1474;51.460;7.150;2022-10-16T01:50:12;14.30;99.90
2929;DHT22;1474;51.460;7.150;2022-10-16T01:52:43;14.30;99.90
2929;DHT22;1474;51.460;7.150;2022-10-16T01:55:10;14.30;99.90
2929;DHT22;1474;51.460;7.150;2022-10-16T01:57:39;14.20;99.90
2929;DHT22;1474;51.460;7.150;2022-10-16T02:00:10;14.20;99.90
2929;DHT22;1474;51.460;7.150;2022-10-16T02:02:39;14.10;99.90
2929;DHT22;1474;51.460;7.150;2022-10-16T02:05:14;14.10;99.90
2929;DHT22;1474;51.460;7.150;2022-10-16T02:07:41;14.10;99.90
2929;DHT22;1474;51.460;7.150;2022-10-16T02:10:08;14.10;99.90
2929;DHT22;1474;51.460;7.150;2022-10-16T02:12:36;14.20;99.90
2929;DHT22;1474;51.460;7.150;2022-10-16T02:15:05;14.10;99.90
2929;DHT22;1474;51.460;7.150;2022-10-16T02:17:31;14.20;99.90
2929;DHT22;1474;51.460;7.150;2022-10-16T02:19:58;14.20;99.90
2929;DHT22;1474;51.460;7.150;2022-10-16T02:22:32;14.20;99.90
2929;DHT22;1474;51.460;7.150;2022-10-16T02:25:10;14.20;99.90
2929;DHT22;1474;51.460;7.150;2022-10-16T02:28:13;14.20;99.90
2929;DHT22;1474;51.460;7.150;2022-10-16T02:30:57;14.10;99.90
2929;DHT22;1474;51.460;7.150;2022-10-16T02:33:25;14.10;99.90
2929;DHT22;1474;51.460;7.150;2022-10-16T02:35:53;14.10;99.90
2929;DHT22;1474;51.460;7.150;2022-10-16T02:38:20;14.10;99.90
2929;DHT22;1474;51.460;7.150;2022-10-16T02:40:46;14.10;99.90
2929;DHT22;1474;51.460;7.150;2022-10-16T02:43:12;14.10;99.90
2929;DHT22;1474;51.460;7.150;2022-10-16T02:45:38;14.10;99.90
2929;DHT22;1474;51.460;7.150;2022-10-16T02:48:04;14.10;99.90
2929;DHT22;1474;51.460;7.150;2022-10-16T02:50:30;14.10;99.90
2929;DHT22;1474;51.460;7.150;2022-10-16T02:52:56;14.10;99.90
2929;DHT22;1474;51.460;7.150;2022-10-16T02:55:21;14.10;99.90
2929;DHT22;1474;51.460;7.150;2022-10-16T02:57:47;14.10;99.90
2929;DHT22;1474;51.460;7.150;2022-10-16T03:00:15;14.00;99.90
2929;DHT22;1474;51.460;7.150;2022-10-16T03:02:41;14.00;99.90
2929;DHT22;1474;51.460;7.150;2022-10-16T03:05:07;14.10;99.90
2929;DHT22;1474;51.460;7.150;2022-10-16T03:07:33;14.10;99.90
2929;DHT22;1474;51.460;7.150;2022-10-16T03:09:59;14.10;99.90
2929;DHT22;1474;51.460;7.150;2022-10-16T03:12:28;14.10;99.90
2929;DHT22;1474;51.460;7.150;2022-10-16T03:14:54;14.10;99.90
2929;DHT22;1474;51.460;7.150;2022-10-16T03:17:20;14.10;99.90
2929;DHT22;1474;51.460;7.150;2022-10-16T03:19:46;14.10;99.90
2929;DHT22;1474;51.460;7.150;2022-10-16T03:22:11;14.10;99.90
2929;DHT22;1474;51.460;7.150;2022-10-16T03:24:37;14.10;99.90
2929;DHT22;1474;51.460;7.150;2022-10-16T03:27:02;14.10;99.90
2929;DHT22;1474;51.460;7.150;2022-10-16T03:29:28;14.20;99.90
2929;DHT22;1474;51.460;7.150;2022-10-16T03:31:55;14.10;99.90
2929;DHT22;1474;51.460;7.150;2022-10-16T03:34:21;14.20;99.90
2929;DHT22;1474;51.460;7.150;2022-10-16T03:36:47;14.10;99.90
2929;DHT22;1474;51.460;7.150;2022-10-16T03:39:13;14.10;99.90
2929;DHT22;1474;51.460;7.150;2022-10-16T03:41:38;14.10;99.90
2929;DHT22;1474;51.460;7.150;2022-10-16T03:44:04;14.10;99.90
2929;DHT22;1474;51.460;7.150;2022-10-16T03:46:30;14.20;99.90
2929;DHT22;1474;51.460;7.150;2022-10-16T03:48:55;14.20;99.90
2929;DHT22;1474;51.460;7.150;2022-10-16T03:51:21;14.20;99.90
2929;DHT22;1474;51.460;7.150;2022-10-16T03:53:46;14.20;99.90
2929;DHT22;1474;51.460;7.150;2022-10-16T03:56:12;14.20;99.90
2929;DHT22;1474;51.460;7.150;2022-10-16T03:58:38;14.20;99.90
2929;DHT22;1474;51.460;7.150;2022-10-16T04:01:03;14.20;99.90
2929;DHT22;1474;51.460;7.150;2022-10-16T04:03:29;14.20;99.90
2929;DHT22;1474;51.460;7.150;2022-10-16T04:05:55;14.10;99.90
2929;DHT22;1474;51.460;7.150;2022-10-16T04:08:20;14.10;99.90
2929;DHT22;1474;51.460;7.150;2022-10-16T04:10:46;14.10;99.90
2929;DHT22;1474;51.460;7.150;2022-10-16T04:13:12;14.10;99.90
2929;DHT22;1474;51.460;7.150;2022-10-16T04:15:38;14.20;99.90
2929;DHT22;1474;51.460;7.150;2022-10-16T04:18:04;14.20;99.90
2929;DHT22;1474;51.460;7.150;2022-10-16T04:20:30;14.10;99.90
2929;DHT22;1474;51.460;7.150;2022-10-16T04:22:56;14.10;99.90
2929;DHT22;1474;51.460;7.150;2022-10-16T04:25:21;14.10;99.90
2929;DHT22;1474;51.460;7.150;2022-10-16T04:27:47;14.10;99.90
2929;DHT22;1474;51.460;7.150;2022-10-16T04:30:13;13.90;99.90
2929;DHT22;1474;51.460;7.150;2022-10-16T04:32:39;13.90;99.90
2929;DHT22;1474;51.460;7.150;2022-10-16T04:35:05;13.90;99.90
2929;DHT22;1474;51.460;7.150;2022-10-16T04:37:31;13.90;99.90
2929;DHT22;1474;51.460;7.150;2022-10-16T04:39:56;14.00;99.90
2929;DHT22;1474;51.460;7.150;2022-10-16T04:42:22;14.00;99.90
2929;DHT22;1474;51.460;7.150;2022-10-16T04:44:48;13.90;99.90
2929;DHT22;1474;51.460;7.150;2022-10-16T04:47:13;13.90;99.90
2929;DHT22;1474;51.460;7.150;2022-10-16T04:49:39;13.90;99.90
2929;DHT22;1474;51.460;7.150;2022-10-16T04:52:05;13.80;99.90
2929;DHT22;1474;51.460;7.150;2022-10-16T04:54:31;13.80;99.90
2929;DHT22;1474;51.460;7.150;2022-10-16T04:56:56;13.90;99.90
2929;DHT22;1474;51.460;7.150;2022-10-16T04:59:23;13.90;99.90
2929;DHT22;1474;51.460;7.150;2022-10-16T05:01:48;13.90;99.90
2929;DHT22;1474;51.460;7.150;2022-10-16T05:04:15;13.90;99.90
2929;DHT22;1474;51.460;7.150;2022-10-16T05:06:41;13.90;99.90
2929;DHT22;1474;51.460;7.150;2022-10-16T05:09:08;13.90;99.90
2929;DHT22;1474;51.460;7.150;2022-10-16T05:11:34;13.90;99.90
2929;DHT22;1474;51.460;7.150;2022-10-16T05:14:00;13.90;99.90
2929;DHT22;1474;51.460;7.150;2022-10-16T05:16:25;13.90;99.90
2929;DHT22;1474;51.460;7.150;2022-10-16T05:18:51;13.90;99.90
2929;DHT22;1474;51.460;7.150;2022-10-16T05:21:17;13.90;99.90
2929;DHT22;1474;51.460;7.150;2022-10-16T05:23:43;13.90;99.90
2929;DHT22;1474;51.460;7.150;2022-10-16T05:26:08;13.90;99.90
2929;DHT22;1474;51.460;7.150;2022-10-16T05:28:35;14.00;99.90
2929;DHT22;1474;51.460;7.150;2022-10-16T05:31:05;14.00;99.90
2929;DHT22;1474;51.460;7.150;2022-10-16T05:33:31;14.00;99.90
2929;DHT22;1474;51.460;7.150;2022-10-16T05:36:04;14.00;99.90
2929;DHT22;1474;51.460;7.150;2022-10-16T05:38:30;14.00;99.90
2929;DHT22;1474;51.460;7.150;2022-10-16T05:40:56;13.90;99.90
2929;DHT22;1474;51.460;7.150;2022-10-16T05:43:22;14.00;99.90
2929;DHT22;1474;51.460;7.150;2022-10-16T05:45:58;13.90;99.90
2929;DHT22;1474;51.460;7.150;2022-10-16T05:48:24;13.90;99.90
2929;DHT22;1474;51.460;7.150;2022-10-16T05:51:02;13.90;99.90
2929;DHT22;1474;51.460;7.150;2022-10-16T05:53:29;13.90;99.90
2929;DHT22;1474;51.460;7.150;2022-10-16T05:55:55;13.90;99.90
2929;DHT22;1474;51.460;7.150;2022-10-16T05:58:22;13.90;99.90
2929;DHT22;1474;51.460;7.150;2022-10-16T06:00:59;13.90;99.90
2929;DHT22;1474;51.460;7.150;2022-10-16T06:03:25;13.90;99.90
2929;DHT22;1474;51.460;7.150;2022-10-16T06:05:51;13.90;99.90
2929;DHT22;1474;51.460;7.150;2022-10-16T06:08:18;13.90;99.90
2929;DHT22;1474;51.460;7.150;2022-10-16T06:10:44;13.90;99.90
2929;DHT22;1474;51.460;7.150;2022-10-16T06:13:11;13.90;99.90
2929;DHT22;1474;51.460;7.150;2022-10-16T06:15:38;13.90;99.90
2929;DHT22;1474;51.460;7.150;2022-10-16T06:18:05;13.90;99.90
2929;DHT22;1474;51.460;7.150;2022-10-16T06:20:30;13.90;99.90
2929;DHT22;1474;51.460;7.150;2022-10-16T06:22:57;14.00;99.90
2929;DHT22;1474;51.460;7.150;2022-10-16T06:25:22;14.00;99.90
2929;DHT22;1474;51.460;7.150;2022-10-16T06:27:48;13.90;99.90
2929;DHT22;1474;51.460;7.150;2022-10-16T06:30:14;14.00;99.90
2929;DHT22;1474;51.460;7.150;2022-10-16T06:32:39;14.00;99.90
2929;DHT22;1474;51.460;7.150;2022-10-16T06:35:05;14.00;99.90
2929;DHT22;1474;51.460;7.150;2022-10-16T06:37:32;14.00;99.90
2929;DHT22;1474;51.460;7.150;2022-10-16T06:39:57;14.00;99.90
2929;DHT22;1474;51.460;7.150;2022-10-16T06:42:23;14.00;99.90
2929;DHT22;1474;51.460;7.150;2022-10-16T06:44:49;14.00;99.90
2929;DHT22;1474;51.460;7.150;2022-10-16T06:47:14;14.10;99.90
2929;DHT22;1474;51.460;7.150;2022-10-16T06:49:40;14.10;99.90
2929;DHT22;1474;51.460;7.150;2022-10-16T06:52:05;14.10;99.90
2929;DHT22;1474;51.460;7.150;2022-10-16T06:54:31;14.20;99.90
2929;DHT22;1474;51.460;7.150;2022-10-16T06:56:57;14.20;99.90
2929;DHT22;1474;51.460;7.150;2022-10-16T06:59:22;14.20;99.90
2929;DHT22;1474;51.460;7.150;2022-10-16T07:01:51;14.20;99.90
2929;DHT22;1474;51.460;7.150;2022-10-16T07:04:17;14.20;99.90
2929;DHT22;1474;51.460;7.150;2022-10-16T07:06:42;14.30;99.90
2929;DHT22;1474;51.460;7.150;2022-10-16T07:09:10;14.30;99.90
2929;DHT22;1474;51.460;7.150;2022-10-16T07:11:37;14.30;99.90
2929;DHT22;1474;51.460;7.150;2022-10-16T07:14:04;14.40;99.90
2929;DHT22;1474;51.460;7.150;2022-10-16T07:16:32;14.40;99.90
2929;DHT22;1474;51.460;7.150;2022-10-16T07:18:59;14.40;99.90
2929;DHT22;1474;51.460;7.150;2022-10-16T07:21:27;14.40;99.90
2929;DHT22;1474;51.460;7.150;2022-10-16T07:23:59;14.40;99.90
2929;DHT22;1474;51.460;7.150;2022-10-16T07:26:27;14.40;99.90
2929;DHT22;1474;51.460;7.150;2022-10-16T07:28:53;14.40;99.90
2929;DHT22;1474;51.460;7.150;2022-10-16T07:31:20;14.40;99.90
2929;DHT22;1474;51.460;7.150;2022-10-16T07:33:46;14.40;99.90
2929;DHT22;1474;51.460;7.150;2022-10-16T07:36:14;14.40;99.90
2929;DHT22;1474;51.460;7.150;2022-10-16T07:38:40;14.40;99.90
2929;DHT22;1474;51.460;7.150;2022-10-16T07:41:12;14.40;99.90
2929;DHT22;1474;51.460;7.150;2022-10-16T07:43:38;14.40;99.90
2929;DHT22;1474;51.460;7.150;2022-10-16T07:46:04;14.50;99.90
2929;DHT22;1474;51.460;7.150;2022-10-16T07:48:32;14.70;99.90
2929;DHT22;1474;51.460;7.150;2022-10-16T07:51:04;14.90;99.90
2929;DHT22;1474;51.460;7.150;2022-10-16T07:53:31;15.10;99.90
2929;DHT22;1474;51.460;7.150;2022-10-16T07:56:01;15.20;99.90
2929;DHT22;1474;51.460;7.150;2022-10-16T07:58:28;15.20;99.90
2929;DHT22;1474;51.460;7.150;2022-10-16T08:00:54;15.40;99.90
2929;DHT22;1474;51.460;7.150;2022-10-16T08:03:20;15.50;99.90
2929;DHT22;1474;51.460;7.150;2022-10-16T08:05:46;15.60;99.90
2929;DHT22;1474;51.460;7.150;2022-10-16T08:08:16;15.80;99.90
2929;DHT22;1474;51.460;7.150;2022-10-16T08:10:42;15.80;99.90
2929;DHT22;1474;51.460;7.150;2022-10-16T08:13:11;16.00;99.90
2929;DHT22;1474;51.460;7.150;2022-10-16T08:15:40;16.10;99.90
2929;DHT22;1474;51.460;7.150;2022-10-16T08:18:06;16.20;99.90
2929;DHT22;1474;51.460;7.150;2022-10-16T08:20:32;16.20;99.90
2929;DHT22;1474;51.460;7.150;2022-10-16T08:22:59;16.30;99.90
2929;DHT22;1474;51.460;7.150;2022-10-16T08:25:30;16.40;99.90
2929;DHT22;1474;51.460;7.150;2022-10-16T08:27:56;16.50;99.90
2929;DHT22;1474;51.460;7.150;2022-10-16T08:30:23;16.50;99.90
2929;DHT22;1474;51.460;7.150;2022-10-16T08:32:49;16.60;99.90
2929;DHT22;1474;51.460;7.150;2022-10-16T08:35:15;16.70;99.90
2929;DHT22;1474;51.460;7.150;2022-10-16T08:37:42;16.70;99.90
2929;DHT22;1474;51.460;7.150;2022-10-16T08:40:17;16.70;99.90
2929;DHT22;1474;51.460;7.150;2022-10-16T08:50:50;17.00;99.90
2929;DHT22;1474;51.460;7.150;2022-10-16T08:53:30;16.90;99.90
2929;DHT22;1474;51.460;7.150;2022-10-16T08:55:56;16.80;99.90
2929;DHT22;1474;51.460;7.150;2022-10-16T08:58:28;16.90;99.90
2929;DHT22;1474;51.460;7.150;2022-10-16T09:00:57;16.90;99.90
2929;DHT22;1474;51.460;7.150;2022-10-16T09:06:14;17.10;99.90
2929;DHT22;1474;51.460;7.150;2022-10-16T09:14:11;17.40;99.90
2929;DHT22;1474;51.460;7.150;2022-10-16T09:16:56;17.40;99.90
2929;DHT22;1474;51.460;7.150;2022-10-16T09:19:31;17.60;99.90
2929;DHT22;1474;51.460;7.150;2022-10-16T09:22:04;17.60;99.90
2929;DHT22;1474;51.460;7.150;2022-10-16T09:24:35;17.70;99.90
2929;DHT22;1474;51.460;7.150;2022-10-16T09:27:01;17.80;99.90
2929;DHT22;1474;51.460;7.150;2022-10-16T09:29:27;17.70;99.90
2929;DHT22;1474;51.460;7.150;2022-10-16T09:31:55;17.80;99.90
2929;DHT22;1474;51.460;7.150;2022-10-16T09:34:37;17.90;99.90
2929;DHT22;1474;51.460;7.150;2022-10-16T09:37:09;18.10;99.90
2929;DHT22;1474;51.460;7.150;2022-10-16T09:39:48;18.30;99.90
2929;DHT22;1474;51.460;7.150;2022-10-16T09:42:29;18.40;99.90
2929;DHT22;1474;51.460;7.150;2022-10-16T09:44:58;18.40;99.90
2929;DHT22;1474;51.460;7.150;2022-10-16T09:47:26;18.40;99.90
2929;DHT22;1474;51.460;7.150;2022-10-16T09:49:56;18.40;99.90
2929;DHT22;1474;51.460;7.150;2022-10-16T09:52:23;18.40;99.90
2929;DHT22;1474;51.460;7.150;2022-10-16T09:57:16;18.30;99.90
2929;DHT22;1474;51.460;7.150;2022-10-16T09:59:55;18.40;99.90
2929;DHT22;1474;51.460;7.150;2022-10-16T10:02:35;18.50;99.90
2929;DHT22;1474;51.460;7.150;2022-10-16T10:05:27;18.50;99.90
2929;DHT22;1474;51.460;7.150;2022-10-16T10:07:56;18.50;99.90
2929;DHT22;1474;51.460;7.150;2022-10-16T10:10:28;18.40;99.90
2929;DHT22;1474;51.460;7.150;2022-10-16T10:12:55;18.50;99.90
2929;DHT22;1474;51.460;7.150;2022-10-16T10:15:22;18.60;99.90
2929;DHT22;1474;51.460;7.150;2022-10-16T10:17:54;18.70;99.90
2929;DHT22;1474;51.460;7.150;2022-10-16T10:20:35;18.70;99.90
2929;DHT22;1474;51.460;7.150;2022-10-16T10:23:24;18.70;99.90
2929;DHT22;1474;51.460;7.150;2022-10-16T10:26:14;18.70;99.90
2929;DHT22;1474;51.460;7.150;2022-10-16T10:37:22;18.90;99.90
2929;DHT22;1474;51.460;7.150;2022-10-16T10:45:46;19.20;99.90
2929;DHT22;1474;51.460;7.150;2022-10-16T10:48:27;19.20;99.90
2929;DHT22;1474;51.460;7.150;2022-10-16T10:51:05;19.40;99.90
2929;DHT22;1474;51.460;7.150;2022-10-16T10:56:57;19.50;99.90
2929;DHT22;1474;51.460;7.150;2022-10-16T10:59:38;19.60;99.90
2929;DHT22;1474;51.460;7.150;2022-10-16T11:07:39;19.60;99.90
2929;DHT22;1474;51.460;7.150;2022-10-16T11:10:21;19.50;99.90
2929;DHT22;1474;51.460;7.150;2022-10-16T11:12:52;19.50;99.90
2929;DHT22;1474;51.460;7.150;2022-10-16T11:15:31;19.50;99.90
2929;DHT22;1474;51.460;7.150;2022-10-16T11:18:33;19.70;99.90
2929;DHT22;1474;51.460;7.150;2022-10-16T11:21:07;19.80;99.90
2929;DHT22;1474;51.460;7.150;2022-10-16T11:23:56;19.90;99.90
2929;DHT22;1474;51.460;7.150;2022-10-16T11:26:34;20.00;99.90
2929;DHT22;1474;51.460;7.150;2022-10-16T11:29:04;20.00;99.90
2929;DHT22;1474;51.460;7.150;2022-10-16T11:32:17;20.10;99.90
2929;DHT22;1474;51.460;7.150;2022-10-16T11:34:52;20.10;99.90
2929;DHT22;1474;51.460;7.150;2022-10-16T11:37:38;20.10;99.90
2929;DHT22;1474;51.460;7.150;2022-10-16T11:40:28;20.20;99.90
2929;DHT22;1474;51.460;7.150;2022-10-16T11:43:45;20.30;99.90
2929;DHT22;1474;51.460;7.150;2022-10-16T11:45:54;20.40;99.90
2929;DHT22;1474;51.460;7.150;2022-10-16T11:48:38;20.40;99.90
2929;DHT22;1474;51.460;7.150;2022-10-16T11:54:22;20.40;99.90
2929;DHT22;1474;51.460;7.150;2022-10-16T11:56:57;20.50;99.90
2929;DHT22;1474;51.460;7.150;2022-10-16T12:02:23;20.60;99.90
2929;DHT22;1474;51.460;7.150;2022-10-16T12:05:14;20.80;99.90
2929;DHT22;1474;51.460;7.150;2022-10-16T12:08:01;20.80;99.90
2929;DHT22;1474;51.460;7.150;2022-10-16T12:10:29;20.50;99.90
2929;DHT22;1474;51.460;7.150;2022-10-16T12:12:57;20.60;99.90
2929;DHT22;1474;51.460;7.150;2022-10-16T12:15:27;20.60;99.90
2929;DHT22;1474;51.460;7.150;2022-10-16T12:17:54;20.70;99.90
2929;DHT22;1474;51.460;7.150;2022-10-16T12:20:29;20.80;99.90
2929;DHT22;1474;51.460;7.150;2022-10-16T12:23:02;20.80;99.90
2929;DHT22;1474;51.460;7.150;2022-10-16T12:25:39;20.90;99.90
2929;DHT22;1474;51.460;7.150;2022-10-16T12:28:21;20.80;99.90
2929;DHT22;1474;51.460;7.150;2022-10-16T12:30:55;20.70;99.90
2929;DHT22;1474;51.460;7.150;2022-10-16T12:33:31;20.80;99.90
2929;DHT22;1474;51.460;7.150;2022-10-16T12:36:10;20.90;99.90
2929;DHT22;1474;51.460;7.150;2022-10-16T12:38:47;21.00;99.90
2929;DHT22;1474;51.460;7.150;2022-10-16T12:41:25;20.90;99.90
2929;DHT22;1474;51.460;7.150;2022-10-16T12:43:54;20.80;99.90
2929;DHT22;1474;51.460;7.150;2022-10-16T12:46:23;20.60;99.90
2929;DHT22;1474;51.460;7.150;2022-10-16T12:48:49;20.50;99.90
2929;DHT22;1474;51.460;7.150;2022-10-16T12:51:33;20.50;99.90
2929;DHT22;1474;51.460;7.150;2022-10-16T13:02:22;20.40;99.90
2929;DHT22;1474;51.460;7.150;2022-10-16T13:16:17;20.40;99.90
2929;DHT22;1474;51.460;7.150;2022-10-16T13:19:11;20.50;99.90
2929;DHT22;1474;51.460;7.150;2022-10-16T13:24:33;20.40;99.90
2929;DHT22;1474;51.460;7.150;2022-10-16T13:27:37;20.50;99.90
2929;DHT22;1474;51.460;7.150;2022-10-16T13:30:16;20.60;99.90
2929;DHT22;1474;51.460;7.150;2022-10-16T13:32:48;20.60;99.90
2929;DHT22;1474;51.460;7.150;2022-10-16T13:35:35;20.50;99.90
2929;DHT22;1474;51.460;7.150;2022-10-16T13:38:29;20.40;99.90
2929;DHT22;1474;51.460;7.150;2022-10-16T13:40:58;20.30;99.90
2929;DHT22;1474;51.460;7.150;2022-10-16T13:46:22;20.20;99.90
2929;DHT22;1474;51.460;7.150;2022-10-16T13:49:03;20.10;99.90
2929;DHT22;1474;51.460;7.150;2022-10-16T13:51:29;20.10;99.90
2929;DHT22;1474;51.460;7.150;2022-10-16T13:53:56;20.10;99.90
2929;DHT22;1474;51.460;7.150;2022-10-16T13:56:26;20.00;99.90
2929;DHT22;1474;51.460;7.150;2022-10-16T13:58:59;20.00;99.90
2929;DHT22;1474;51.460;7.150;2022-10-16T14:01:29;20.00;99.90
2929;DHT22;1474;51.460;7.150;2022-10-16T14:04:02;20.00;99.90
2929;DHT22;1474;51.460;7.150;2022-10-16T14:06:33;20.00;99.90
2929;DHT22;1474;51.460;7.150;2022-10-16T14:09:07;20.10;99.90
2929;DHT22;1474;51.460;7.150;2022-10-16T14:11:45;20.10;99.90
2929;DHT22;1474;51.460;7.150;2022-10-16T14:14:12;20.20;99.90
2929;DHT22;1474;51.460;7.150;2022-10-16T14:16:41;20.10;99.90
2929;DHT22;1474;51.460;7.150;2022-10-16T14:19:22;20.10;99.90
2929;DHT22;1474;51.460;7.150;2022-10-16T14:21:51;20.30;99.90
2929;DHT22;1474;51.460;7.150;2022-10-16T14:26:59;20.40;99.90
2929;DHT22;1474;51.460;7.150;2022-10-16T14:29:27;20.40;99.90
2929;DHT22;1474;51.460;7.150;2022-10-16T14:32:04;20.40;99.90
2929;DHT22;1474;51.460;7.150;2022-10-16T14:34:37;20.40;99.90
2929;DHT22;1474;51.460;7.150;2022-10-16T14:37:17;20.30;99.90
2929;DHT22;1474;51.460;7.150;2022-10-16T14:39:54;20.30;99.90
2929;DHT22;1474;51.460;7.150;2022-10-16T14:42:22;20.20;99.90
2929;DHT22;1474;51.460;7.150;2022-10-16T14:44:55;20.10;99.90
2929;DHT22;1474;51.460;7.150;2022-10-16T14:47:24;20.10;99.90
2929;DHT22;1474;51.460;7.150;2022-10-16T14:49:55;20.10;99.90
2929;DHT22;1474;51.460;7.150;2022-10-16T14:52:23;20.10;99.90
2929;DHT22;1474;51.460;7.150;2022-10-16T14:54:49;20.20;99.90
2929;DHT22;1474;51.460;7.150;2022-10-16T14:57:23;20.20;99.90
2929;DHT22;1474;51.460;7.150;2022-10-16T14:59:51;20.20;99.90
2929;DHT22;1474;51.460;7.150;2022-10-16T15:02:28;20.10;99.90
2929;DHT22;1474;51.460;7.150;2022-10-16T15:04:56;20.10;99.90
2929;DHT22;1474;51.460;7.150;2022-10-16T15:07:22;20.00;99.90
2929;DHT22;1474;51.460;7.150;2022-10-16T15:09:51;20.00;99.90
2929;DHT22;1474;51.460;7.150;2022-10-16T15:12:19;20.00;99.90
2929;DHT22;1474;51.460;7.150;2022-10-16T15:14:45;20.00;99.90
2929;DHT22;1474;51.460;7.150;2022-10-16T15:17:11;19.90;99.90
2929;DHT22;1474;51.460;7.150;2022-10-16T15:19:37;19.90;99.90
2929;DHT22;1474;51.460;7.150;2022-10-16T15:22:02;19.80;99.90
2929;DHT22;1474;51.460;7.150;2022-10-16T15:24:29;19.80;99.90
2929;DHT22;1474;51.460;7.150;2022-10-16T15:26:54;19.80;99.90
2929;DHT22;1474;51.460;7.150;2022-10-16T15:29:20;19.80;99.90
2929;DHT22;1474;51.460;7.150;2022-10-16T15:31:46;19.80;99.90
2929;DHT22;1474;51.460;7.150;2022-10-16T15:34:13;19.80;99.90
2929;DHT22;1474;51.460;7.150;2022-10-16T15:36:39;19.70;99.90
2929;DHT22;1474;51.460;7.150;2022-10-16T15:39:13;19.70;99.90
2929;DHT22;1474;51.460;7.150;2022-10-16T15:41:41;19.70;99.90
2929;DHT22;1474;51.460;7.150;2022-10-16T15:44:07;19.60;99.90
2929;DHT22;1474;51.460;7.150;2022-10-16T15:46:33;19.60;99.90
2929;DHT22;1474;51.460;7.150;2022-10-16T15:49:00;19.60;99.90
2929;DHT22;1474;51.460;7.150;2022-10-16T15:51:27;19.50;99.90
2929;DHT22;1474;51.460;7.150;2022-10-16T15:53:57;19.40;99.90
2929;DHT22;1474;51.460;7.150;2022-10-16T15:56:27;19.40;99.90
2929;DHT22;1474;51.460;7.150;2022-10-16T15:58:54;19.40;99.90
2929;DHT22;1474;51.460;7.150;2022-10-16T16:01:20;19.30;99.90
2929;DHT22;1474;51.460;7.150;2022-10-16T16:03:52;19.30;99.90
2929;DHT22;1474;51.460;7.150;2022-10-16T16:06:18;19.20;99.90
2929;DHT22;1474;51.460;7.150;2022-10-16T16:08:44;19.20;99.90
2929;DHT22;1474;51.460;7.150;2022-10-16T16:11:11;19.10;99.90
2929;DHT22;1474;51.460;7.150;2022-10-16T16:13:41;19.00;99.90
2929;DHT22;1474;51.460;7.150;2022-10-16T16:16:12;19.00;99.90
2929;DHT22;1474;51.460;7.150;2022-10-16T16:18:39;19.00;99.90
2929;DHT22;1474;51.460;7.150;2022-10-16T16:21:05;18.90;99.90
2929;DHT22;1474;51.460;7.150;2022-10-16T16:23:31;18.90;99.90
2929;DHT22;1474;51.460;7.150;2022-10-16T16:28:28;18.80;99.90
2929;DHT22;1474;51.460;7.150;2022-10-16T16:30:54;18.80;99.90
2929;DHT22;1474;51.460;7.150;2022-10-16T16:33:19;18.70;99.90
2929;DHT22;1474;51.460;7.150;2022-10-16T16:35:45;18.60;99.90
2929;DHT22;1474;51.460;7.150;2022-10-16T16:38:11;18.60;99.90
2929;DHT22;1474;51.460;7.150;2022-10-16T16:40:36;18.50;99.90
2929;DHT22;1474;51.460;7.150;2022-10-16T16:43:02;18.50;99.90
2929;DHT22;1474;51.460;7.150;2022-10-16T16:45:29;18.40;99.90
2929;DHT22;1474;51.460;7.150;2022-10-16T16:47:58;18.40;99.90
2929;DHT22;1474;51.460;7.150;2022-10-16T16:50:23;18.30;99.90
2929;DHT22;1474;51.460;7.150;2022-10-16T16:52:49;18.20;99.90
2929;DHT22;1474;51.460;7.150;2022-10-16T16:55:15;18.10;99.90
2929;DHT22;1474;51.460;7.150;2022-10-16T16:57:41;18.10;99.90
2929;DHT22;1474;51.460;7.150;2022-10-16T17:00:08;18.10;99.90
2929;DHT22;1474;51.460;7.150;2022-10-16T17:02:34;18.00;99.90
2929;DHT22;1474;51.460;7.150;2022-10-16T17:05:00;17.90;99.90
2929;DHT22;1474;51.460;7.150;2022-10-16T17:07:28;17.90;99.90
2929;DHT22;1474;51.460;7.150;2022-10-16T17:09:57;17.90;99.90
2929;DHT22;1474;51.460;7.150;2022-10-16T17:12:23;17.80;99.90
2929;DHT22;1474;51.460;7.150;2022-10-16T17:14:50;17.80;99.90
2929;DHT22;1474;51.460;7.150;2022-10-16T17:17:16;17.80;99.90
2929;DHT22;1474;51.460;7.150;2022-10-16T17:19:44;17.70;99.90
2929;DHT22;1474;51.460;7.150;2022-10-16T17:22:10;17.60;99.90
2929;DHT22;1474;51.460;7.150;2022-10-16T17:24:35;17.60;99.90
2929;DHT22;1474;51.460;7.150;2022-10-16T17:27:01;17.50;99.90
2929;DHT22;1474;51.460;7.150;2022-10-16T17:29:28;17.50;99.90
2929;DHT22;1474;51.460;7.150;2022-10-16T17:31:55;17.40;99.90
2929;DHT22;1474;51.460;7.150;2022-10-16T17:34:23;17.40;99.90
2929;DHT22;1474;51.460;7.150;2022-10-16T17:36:52;17.40;99.90
2929;DHT22;1474;51.460;7.150;2022-10-16T17:39:19;17.30;99.90
2929;DHT22;1474;51.460;7.150;2022-10-16T17:41:46;17.30;99.90
2929;DHT22;1474;51.460;7.150;2022-10-16T17:44:12;17.30;99.90
2929;DHT22;1474;51.460;7.150;2022-10-16T17:46:50;17.30;99.90
2929;DHT22;1474;51.460;7.150;2022-10-16T17:49:16;17.30;99.90